Time;durP1;ratioP1;P1;durP2;ratioP2;P2;SDS_P1;SDS_P2;PMS_P1;PMS_P2;Temp;Humidity;BMP_temperature;BMP_pressure;BME280_temperature;BME280_humidity;BME280_pressure;Samples;Min_cycle;Max_cycle;Signal;HPM_P1;HPM_P2
2022/09/28 00:01:23;;;;;;;0.90;0.90;;;10.60;99.90;;;10.98;nan;98804.00;5015483;28;20617;-66
2022/09/28 00:03:54;;;;;;;0.83;0.83;;;10.60;99.90;;;10.88;nan;98801.50;5019936;28;20684;-65
2022/09/28 00:06:23;;;;;;;1.30;1.20;;;10.70;99.90;;;10.92;nan;98791.59;5014551;28;20670;-65
2022/09/28 00:08:51;;;;;;;0.53;0.53;;;10.60;99.90;;;11.01;nan;98792.44;5029217;28;20632;-66
2022/09/28 00:11:21;;;;;;;0.70;0.70;;;10.70;99.90;;;10.67;nan;98789.81;5030520;28;20632;-65
2022/09/28 00:13:51;;;;;;;0.97;0.97;;;10.60;99.90;;;10.91;nan;98782.13;5010436;28;20737;-65
2022/09/28 00:16:23;;;;;;;0.93;0.93;;;10.60;99.90;;;11.01;nan;98771.56;5022464;28;20648;-65
2022/09/28 00:18:50;;;;;;;1.00;1.00;;;10.60;99.90;;;10.96;nan;98773.81;5031570;28;20617;-65
2022/09/28 00:21:24;;;;;;;1.70;1.10;;;10.70;99.90;;;10.97;nan;98765.81;5013325;28;21230;-65
2022/09/28 00:24:11;;;;;;;0.50;0.50;;;10.70;99.90;;;11.03;nan;98762.59;5031695;28;21020;-65
2022/09/28 00:26:47;;;;;;;1.00;1.00;;;10.70;99.90;;;11.07;nan;98765.72;5016090;28;21227;-64
2022/09/28 00:29:30;;;;;;;3.53;0.70;;;10.70;99.90;;;11.03;nan;98765.19;5030737;28;20643;-65
2022/09/28 00:32:03;;;;;;;0.77;0.77;;;10.70;99.90;;;10.97;nan;98755.38;5030883;28;20628;-65
2022/09/28 00:34:36;;;;;;;0.83;0.77;;;10.70;99.90;;;10.95;nan;98757.34;5030607;28;20655;-65
2022/09/28 00:37:07;;;;;;;1.03;0.80;;;10.70;99.90;;;10.94;nan;98751.28;5032745;28;20608;-65
2022/09/28 00:39:37;;;;;;;0.73;0.73;;;10.70;99.90;;;10.88;nan;98748.53;5008586;28;21209;-64
2022/09/28 00:42:14;;;;;;;0.83;0.83;;;10.70;99.90;;;10.84;nan;98737.56;5027993;28;20631;-64
2022/09/28 00:44:53;;;;;;;1.27;0.60;;;10.70;99.90;;;10.92;nan;98727.16;5029536;28;20656;-64
2022/09/28 00:47:43;;;;;;;0.70;0.63;;;10.70;99.90;;;10.68;nan;98732.31;5012343;28;20631;-65
2022/09/28 00:50:28;;;;;;;0.60;0.60;;;10.60;99.90;;;10.88;nan;98722.44;5030422;28;20620;-65
2022/09/28 00:53:18;;;;;;;0.50;0.50;;;10.60;99.90;;;10.75;nan;98719.47;5014373;28;20613;-65
2022/09/28 00:55:59;;;;;;;0.67;0.67;;;10.60;99.90;;;10.76;nan;98706.25;5031491;28;20633;-64
2022/09/28 00:58:31;;;;;;;0.70;0.70;;;10.60;99.90;;;10.76;nan;98695.81;5028827;28;20627;-65
2022/09/28 01:00:59;;;;;;;0.70;0.50;;;10.60;99.90;;;10.50;nan;98687.22;5011803;28;20648;-65
2022/09/28 01:03:27;;;;;;;0.63;0.63;;;10.50;99.90;;;10.37;nan;98670.41;5027411;28;20694;-65
2022/09/28 01:05:58;;;;;;;1.10;0.47;;;10.40;99.90;;;10.61;nan;98683.53;5010820;28;20652;-66
2022/09/28 01:08:28;;;;;;;0.70;0.70;;;10.30;99.90;;;10.66;nan;98674.28;5013500;28;21000;-65
2022/09/28 01:10:57;;;;;;;0.40;0.40;;;10.40;99.90;;;10.71;nan;98669.38;5029552;28;20632;-65
2022/09/28 01:13:24;;;;;;;0.90;0.80;;;10.40;99.90;;;10.69;nan;98678.38;5012537;28;20632;-65
2022/09/28 01:16:31;;;;;;;0.50;0.40;;;10.40;99.90;;;10.71;nan;98661.56;5028940;28;20647;-65
2022/09/28 01:19:26;;;;;;;0.47;0.47;;;10.50;99.90;;;10.82;nan;98656.03;5031695;28;20662;-66
2022/09/28 01:22:37;;;;;;;1.90;0.90;;;10.50;99.90;;;10.92;nan;98655.91;5030095;28;20634;-65
2022/09/28 01:25:27;;;;;;;0.40;0.40;;;10.60;99.90;;;10.65;nan;98651.75;5013581;28;20672;-65
2022/09/28 01:28:03;;;;;;;0.80;0.80;;;10.50;99.90;;;10.76;nan;98650.66;5030472;28;20626;-64
2022/09/28 01:30:41;;;;;;;1.03;0.93;;;10.50;99.90;;;10.92;nan;98651.50;5030619;28;20616;-65
2022/09/28 01:33:13;;;;;;;0.57;0.57;;;10.60;99.90;;;10.93;nan;98660.16;5013166;28;20626;-64
2022/09/28 01:35:45;;;;;;;0.70;0.70;;;10.60;99.90;;;11.01;nan;98660.16;5014336;28;20693;-65
2022/09/28 01:38:20;;;;;;;1.07;1.00;;;10.60;99.90;;;11.11;nan;98663.47;5005051;28;20644;-65
2022/09/28 01:40:48;;;;;;;0.60;0.60;;;10.70;99.90;;;11.18;nan;98653.19;5009696;28;20628;-65
2022/09/28 01:43:28;;;;;;;0.50;0.50;;;10.80;99.90;;;11.14;nan;98651.88;4983294;28;20625;-64
2022/09/28 01:46:04;;;;;;;0.50;0.50;;;10.80;99.90;;;11.23;nan;98656.13;5012940;28;20668;-65
2022/09/28 01:48:43;;;;;;;0.63;0.63;;;10.90;99.90;;;11.27;nan;98667.84;5013122;28;20624;-65
2022/09/28 01:51:20;;;;;;;0.77;0.77;;;10.90;99.90;;;11.24;nan;98653.38;5029371;28;20643;-64
2022/09/28 01:54:02;;;;;;;0.40;0.40;;;10.90;99.90;;;11.29;nan;98645.03;5030100;28;20701;-64
2022/09/28 01:56:48;;;;;;;0.63;0.63;;;10.90;99.90;;;11.32;nan;98642.91;5030208;28;20637;-65
2022/09/28 01:59:19;;;;;;;0.87;0.80;;;10.90;99.90;;;11.26;nan;98634.91;5011998;28;20624;-66
2022/09/28 02:01:57;;;;;;;0.50;0.50;;;10.90;99.90;;;11.07;nan;98630.84;5029845;28;21035;-65
2022/09/28 02:04:47;;;;;;;0.50;0.50;;;10.90;99.90;;;11.01;nan;98630.66;5006145;28;20668;-65
2022/09/28 02:07:42;;;;;;;0.50;0.50;;;10.80;99.90;;;11.18;nan;98632.31;5012078;28;21188;-66
2022/09/28 02:10:22;;;;;;;0.50;0.50;;;10.80;99.90;;;11.27;nan;98636.53;5031112;28;21196;-67
2022/09/28 02:13:05;;;;;;;0.50;0.50;;;10.90;99.90;;;11.15;nan;98628.22;5016015;28;20976;-64
2022/09/28 02:15:50;;;;;;;0.63;0.63;;;10.90;99.90;;;11.19;nan;98620.88;5016765;28;20655;-65
2022/09/28 02:18:17;;;;;;;0.50;0.50;;;10.90;99.90;;;11.26;nan;98614.88;5017692;28;20615;-65
2022/09/28 02:21:15;;;;;;;0.50;0.50;;;10.90;99.90;;;11.38;nan;98612.72;5026642;28;20638;-65
2022/09/28 02:24:08;;;;;;;0.50;0.50;;;10.90;99.90;;;11.40;nan;98614.19;5012502;28;20661;-65
2022/09/28 02:26:40;;;;;;;0.60;0.60;;;10.90;99.90;;;11.46;nan;98602.25;4997767;28;20989;-65
2022/09/28 02:29:07;;;;;;;0.57;0.57;;;11.00;99.90;;;11.45;nan;98603.25;4997496;28;21709;-66
2022/09/28 02:31:35;;;;;;;0.40;0.40;;;11.00;99.90;;;11.46;nan;98603.09;5029851;28;20635;-65
2022/09/28 02:34:02;;;;;;;0.47;0.47;;;11.10;99.90;;;11.51;nan;98610.44;5019177;28;20683;-65
2022/09/28 02:36:29;;;;;;;0.50;0.50;;;11.10;99.90;;;11.56;nan;98608.94;5033193;28;21330;-65
2022/09/28 02:38:57;;;;;;;0.63;0.57;;;11.10;99.90;;;11.49;nan;98615.00;5033370;28;20621;-64
2022/09/28 02:41:47;;;;;;;0.40;0.40;;;11.10;99.90;;;11.50;nan;98617.44;5015839;28;20627;-65
2022/09/28 02:44:56;;;;;;;2.67;0.50;;;11.10;99.90;;;11.53;nan;98613.69;5015238;28;21247;-65
2022/09/28 02:47:57;;;;;;;0.40;0.40;;;11.10;99.90;;;11.47;nan;98628.22;5016379;28;20776;-65
2022/09/28 02:51:05;;;;;;;0.50;0.50;;;11.10;99.90;;;11.47;nan;98609.97;5034361;28;20625;-65
2022/09/28 02:53:56;;;;;;;0.40;0.40;;;11.10;99.90;;;11.56;nan;98610.75;5021721;28;20633;-65
2022/09/28 02:56:31;;;;;;;0.50;0.50;;;11.10;99.90;;;11.45;nan;98608.47;5027667;28;20646;-65
2022/09/28 02:59:23;;;;;;;0.40;0.40;;;11.10;99.90;;;11.45;nan;98603.25;5032225;28;20648;-65
2022/09/28 03:02:14;;;;;;;0.57;0.57;;;11.10;99.90;;;11.25;nan;98601.94;5032994;28;21172;-65
2022/09/28 03:05:08;;;;;;;0.50;0.50;;;11.00;99.90;;;11.30;nan;98597.06;5031791;28;20676;-65
2022/09/28 03:07:55;;;;;;;0.73;0.73;;;11.00;99.90;;;11.34;nan;98595.75;5016002;28;20616;-65
2022/09/28 03:10:46;;;;;;;0.97;0.83;;;11.00;99.90;;;11.39;nan;98604.72;5016451;28;20690;-64
2022/09/28 03:13:15;;;;;;;0.53;0.53;;;11.00;99.90;;;11.45;nan;98604.09;5012466;28;20625;-65
2022/09/28 03:15:43;;;;;;;0.60;0.60;;;11.00;99.90;;;11.49;nan;98591.50;5013372;23;21122;-66
2022/09/28 03:18:15;;;;;;;0.70;0.70;;;11.00;99.90;;;11.54;nan;98599.66;5016306;28;20621;-69
2022/09/28 03:20:42;;;;;;;0.80;0.80;;;11.10;99.90;;;11.47;nan;98596.91;5016413;28;20619;-66
2022/09/28 03:23:09;;;;;;;0.87;0.87;;;11.10;99.90;;;11.58;nan;98596.53;5032531;28;20959;-66
2022/09/28 03:25:50;;;;;;;0.90;0.90;;;11.10;99.90;;;11.51;nan;98594.75;5017640;28;20725;-66
2022/09/28 03:28:17;;;;;;;1.43;1.00;;;11.10;99.90;;;11.59;nan;98600.78;5032618;28;20617;-66
2022/09/28 03:30:44;;;;;;;1.57;1.10;;;11.10;99.90;;;11.47;nan;98591.69;5026837;28;20634;-67
2022/09/28 03:33:11;;;;;;;1.10;1.10;;;11.10;99.90;;;11.45;nan;98595.44;5023753;28;20624;-66
2022/09/28 03:35:38;;;;;;;0.80;0.77;;;11.00;99.90;;;11.26;nan;98588.75;5031282;28;20661;-66
2022/09/28 03:38:04;;;;;;;2.03;1.10;;;11.00;99.90;;;11.42;nan;98598.34;5032552;28;20620;-68
2022/09/28 03:40:31;;;;;;;1.93;0.87;;;11.00;99.90;;;11.52;nan;98594.59;5020868;28;20633;-66
2022/09/28 03:43:00;;;;;;;0.97;0.87;;;11.10;99.90;;;11.49;nan;98599.34;5017551;28;20625;-66
2022/09/28 03:45:26;;;;;;;1.00;1.00;;;11.10;99.90;;;11.53;nan;98603.25;5027888;28;20665;-67
2022/09/28 03:47:53;;;;;;;0.40;0.40;;;11.10;99.90;;;11.42;nan;98603.56;5020303;28;20637;-66
2022/09/28 03:50:20;;;;;;;0.87;0.87;;;11.10;99.90;;;11.41;nan;98596.75;5031657;28;20826;-66
2022/09/28 03:52:47;;;;;;;0.90;0.90;;;11.10;99.90;;;11.31;nan;98606.50;5032444;28;21183;-66
2022/09/28 03:55:14;;;;;;;1.00;0.80;;;11.00;99.90;;;11.39;nan;98596.88;5014629;28;20661;-66
2022/09/28 03:57:41;;;;;;;0.80;0.80;;;11.10;99.90;;;11.36;nan;98593.78;5032475;28;20623;-68
2022/09/28 04:00:09;;;;;;;0.80;0.80;;;11.00;99.90;;;11.43;nan;98594.78;5032464;28;20601;-66
2022/09/28 04:02:36;;;;;;;5.23;0.90;;;11.00;99.90;;;11.54;nan;98597.06;5029718;28;20624;-66
2022/09/28 04:05:03;;;;;;;0.90;0.90;;;11.10;99.90;;;11.48;nan;98600.31;5030936;28;20660;-66
2022/09/28 04:07:30;;;;;;;1.20;1.10;;;11.00;99.90;;;11.30;nan;98599.69;5031071;28;20657;-67
2022/09/28 04:09:57;;;;;;;0.83;0.83;;;11.00;99.90;;;11.41;nan;98601.97;5030279;28;20637;-65
2022/09/28 04:12:24;;;;;;;0.80;0.70;;;11.00;99.90;;;11.36;nan;98605.06;5031477;28;20625;-66
2022/09/28 04:14:51;;;;;;;0.70;0.70;;;11.00;99.90;;;11.46;nan;98607.50;5025165;28;20719;-66
2022/09/28 04:17:18;;;;;;;4.20;1.03;;;11.00;99.90;;;11.42;nan;98603.56;5025538;28;20632;-66
2022/09/28 04:19:46;;;;;;;1.10;1.10;;;11.00;99.90;;;11.29;nan;98598.03;5043474;28;20695;-67
2022/09/28 04:22:13;;;;;;;1.20;0.80;;;10.90;99.90;;;11.30;nan;98597.88;5028944;28;21432;-66
2022/09/28 04:24:42;;;;;;;2.83;1.13;;;11.00;99.90;;;11.36;nan;98597.22;5011405;28;20688;-69
2022/09/28 04:29:54;;;;;;;0.77;0.77;;;11.00;99.90;;;11.33;nan;98604.59;5019595;28;20633;-67
2022/09/28 04:32:21;;;;;;;1.20;1.20;;;11.00;99.90;;;11.26;nan;98606.22;5029982;28;20611;-66
2022/09/28 04:34:48;;;;;;;2.40;1.07;;;10.90;99.90;;;11.36;nan;98599.84;5023998;28;21279;-69
2022/09/28 04:37:15;;;;;;;0.80;0.80;;;11.00;99.90;;;11.33;nan;98602.75;5031273;28;20970;-66
2022/09/28 04:39:42;;;;;;;1.00;1.00;;;11.00;99.90;;;11.22;nan;98613.53;5030273;28;20637;-65
2022/09/28 04:42:14;;;;;;;1.13;1.13;;;10.90;99.90;;;11.33;nan;98618.44;5019619;28;20648;-65
2022/09/28 04:44:41;;;;;;;1.10;1.10;;;11.00;99.90;;;11.41;nan;98617.63;5030922;28;20657;-65
2022/09/28 04:47:08;;;;;;;1.70;1.60;;;11.00;99.90;;;11.41;nan;98622.84;5031103;28;20656;-66
2022/09/28 04:49:37;;;;;;;1.47;1.37;;;11.00;99.90;;;11.40;nan;98615.97;5031263;28;20627;-65
2022/09/28 04:52:04;;;;;;;1.10;1.00;;;11.00;99.90;;;11.44;nan;98615.50;5023991;28;20637;-66
2022/09/28 04:54:31;;;;;;;1.00;1.00;;;11.00;99.90;;;11.40;nan;98613.38;5013043;28;20645;-67
2022/09/28 04:56:58;;;;;;;1.50;1.40;;;11.00;99.90;;;11.44;nan;98619.91;5010707;28;20653;-68
2022/09/28 04:59:25;;;;;;;1.63;1.37;;;11.00;99.90;;;11.47;nan;98627.41;5011606;28;21187;-66
2022/09/28 05:01:52;;;;;;;2.17;1.40;;;11.00;99.90;;;11.51;nan;98639.16;5019068;28;21205;-68
2022/09/28 05:04:19;;;;;;;1.10;1.00;;;11.10;99.90;;;11.53;nan;98634.59;5030751;28;20644;-67
2022/09/28 05:06:51;;;;;;;0.80;0.80;;;11.10;99.90;;;11.54;nan;98642.25;5026738;28;20669;-65
2022/09/28 05:09:18;;;;;;;1.27;1.20;;;11.10;99.90;;;11.48;nan;98645.53;5029544;28;20635;-66
2022/09/28 05:11:45;;;;;;;1.20;1.20;;;11.10;99.90;;;11.56;nan;98639.50;5013491;28;21198;-66
2022/09/28 05:14:12;;;;;;;0.80;0.80;;;11.10;99.90;;;11.50;nan;98640.13;4992542;28;20668;-66
2022/09/28 05:16:39;;;;;;;0.80;0.80;;;11.10;99.90;;;11.42;nan;98637.53;5024638;28;20640;-66
2022/09/28 05:19:06;;;;;;;0.80;0.80;;;11.10;99.90;;;11.48;nan;98642.09;5030575;28;20677;-66
2022/09/28 05:21:33;;;;;;;1.10;1.03;;;11.10;99.90;;;11.71;nan;98645.72;5030665;28;20647;-68
2022/09/28 05:24:04;;;;;;;1.20;1.20;;;11.10;99.90;;;11.72;nan;98649.94;5031664;28;21254;-66
2022/09/28 05:26:31;;;;;;;7.00;4.70;;;11.20;99.90;;;11.61;nan;98650.25;5029723;28;20665;-66
2022/09/28 05:28:57;;;;;;;5.77;2.50;;;11.20;99.90;;;11.57;nan;98647.16;5030008;28;20621;-66
2022/09/28 05:31:26;;;;;;;1.30;1.20;;;11.10;99.90;;;11.57;nan;98648.94;5030384;28;20639;-65
2022/09/28 05:33:53;;;;;;;1.83;1.73;;;11.10;99.90;;;11.60;nan;98656.47;5031171;28;20605;-66
2022/09/28 05:36:20;;;;;;;1.23;1.23;;;11.10;99.90;;;11.57;nan;98649.75;5030778;28;20628;-66
2022/09/28 05:38:47;;;;;;;1.30;1.30;;;11.10;99.90;;;11.63;nan;98653.50;5027407;28;20781;-66
2022/09/28 05:41:14;;;;;;;1.40;1.40;;;11.10;99.90;;;11.59;nan;98660.88;5023134;28;20641;-67
2022/09/28 05:43:42;;;;;;;1.80;1.40;;;11.10;99.90;;;11.64;nan;98674.25;5027190;28;21234;-66
2022/09/28 05:46:10;;;;;;;1.13;1.13;;;11.10;99.90;;;11.66;nan;98663.63;5016952;28;20685;-66
2022/09/28 05:48:37;;;;;;;2.83;1.43;;;11.20;99.90;;;11.65;nan;98665.44;5009453;28;20630;-66
2022/09/28 05:51:04;;;;;;;1.03;1.03;;;11.20;99.90;;;11.67;nan;98670.50;5010534;28;20648;-66
2022/09/28 05:53:31;;;;;;;1.50;1.40;;;11.20;99.90;;;11.66;nan;98663.63;5018192;28;20633;-65
2022/09/28 05:55:58;;;;;;;1.27;1.17;;;11.20;99.90;;;11.66;nan;98664.50;5029307;28;20664;-66
2022/09/28 05:58:27;;;;;;;1.87;1.30;;;11.20;99.90;;;11.70;nan;98670.19;5025954;28;20637;-65
2022/09/28 06:00:55;;;;;;;1.23;1.13;;;11.20;99.90;;;11.59;nan;98675.72;5022516;28;20632;-68
2022/09/28 06:03:23;;;;;;;1.47;1.40;;;11.20;99.90;;;11.69;nan;98679.81;5028196;28;20637;-66
2022/09/28 06:05:50;;;;;;;2.10;1.07;;;11.20;99.90;;;11.68;nan;98677.38;5028918;28;20649;-67
2022/09/28 06:08:17;;;;;;;1.27;1.27;;;11.20;99.90;;;11.60;nan;98685.19;5028089;28;20629;-66
2022/09/28 06:10:44;;;;;;;1.63;1.53;;;11.20;99.90;;;11.74;nan;98687.16;5024771;28;20633;-66
2022/09/28 06:13:11;;;;;;;2.50;1.07;;;11.20;99.90;;;11.83;nan;98690.59;5029412;28;20632;-65
2022/09/28 06:15:41;;;;;;;1.27;1.10;;;11.30;99.90;;;12.43;nan;98697.84;5020755;28;20674;-67
2022/09/28 06:18:13;;;;;;;6.30;1.83;;;11.50;99.90;;;13.03;nan;98705.88;5012149;28;20755;-69
2022/09/28 06:20:41;;;;;;;1.77;1.67;;;11.90;99.90;;;14.53;nan;98702.38;5009929;28;20703;-66
2022/09/28 06:23:10;;;;;;;1.80;1.10;;;12.60;99.90;;;16.45;nan;98696.97;5020224;28;21263;-66
2022/09/28 06:25:38;;;;;;;1.20;1.20;;;13.80;99.90;;;18.06;nan;98706.53;5028864;28;20675;-67
2022/09/28 06:28:11;;;;;;;5.70;1.20;;;15.00;99.90;;;18.74;nan;98715.00;5030354;28;21296;-65
2022/09/28 06:30:40;;;;;;;3.40;1.63;;;15.90;99.90;;;18.65;nan;98708.31;5030453;28;20601;-68
2022/09/28 06:33:10;;;;;;;1.03;0.93;;;16.40;99.90;;;17.77;nan;98701.69;5013575;28;20620;-66
2022/09/28 06:35:39;;;;;;;1.30;1.30;;;16.30;99.90;;;16.86;nan;98718.88;5029084;28;20656;-66
2022/09/28 06:38:06;;;;;;;2.77;1.40;;;15.90;99.90;;;15.96;nan;98709.38;5030264;28;20651;-65
2022/09/28 06:40:33;;;;;;;1.43;1.33;;;15.40;99.90;;;15.27;nan;98719.63;5021302;28;21226;-67
2022/09/28 06:43:18;;;;;;;1.47;1.37;;;15.00;99.90;;;14.88;nan;98723.63;5029613;28;21211;-66
2022/09/28 06:45:51;;;;;;;4.07;2.40;;;14.60;99.90;;;14.42;nan;98730.88;5029784;28;20648;-66
2022/09/28 06:48:18;;;;;;;1.70;1.60;;;14.10;99.90;;;14.21;nan;98728.09;5021466;28;20676;-66
2022/09/28 06:50:46;;;;;;;2.63;1.20;;;13.90;99.90;;;14.20;nan;98724.69;5009473;28;20613;-66
2022/09/28 06:53:13;;;;;;;1.20;1.10;;;13.70;99.90;;;15.77;nan;98728.44;5016803;28;20734;-67
2022/09/28 06:55:44;;;;;;;2.77;1.60;;;14.20;99.90;;;18.03;nan;98737.81;5009463;28;20663;-66
2022/09/28 06:58:16;;;;;;;1.30;1.30;;;15.40;99.90;;;19.92;nan;98737.13;5024145;28;21221;-67
2022/09/28 07:00:43;;;;;;;1.40;1.30;;;16.90;99.90;;;21.80;nan;98746.88;5013394;28;20630;-66
2022/09/28 07:03:19;;;;;;;3.93;1.67;;;18.30;99.90;;;23.44;nan;98758.03;4997032;28;20625;-67
2022/09/28 07:05:50;;;;;;;3.17;1.43;;;19.70;99.90;;;24.53;nan;98752.94;5024216;28;20664;-66
2022/09/28 07:08:17;;;;;;;2.37;1.30;;;20.80;99.90;;;25.48;nan;98751.78;5032180;28;20657;-66
2022/09/28 07:10:47;;;;;;;2.20;1.60;;;21.90;99.90;;;25.97;nan;98756.00;5029559;28;21259;-65
2022/09/28 07:13:16;;;;;;;2.77;1.43;;;22.50;98.80;;;26.13;nan;98755.91;5024379;28;20625;-68
2022/09/28 07:16:03;;;;;;;2.27;1.30;;;23.00;96.00;;;24.81;nan;98759.25;4985674;28;21192;-67
2022/09/28 07:18:30;;;;;;;2.37;1.70;;;22.70;94.50;;;23.73;nan;98762.28;5027784;28;21179;-66
2022/09/28 07:20:58;;;;;;;3.10;1.43;;;22.10;94.90;;;24.07;nan;98760.50;5033840;28;20640;-66
2022/09/28 07:23:28;;;;;;;2.40;1.67;;;22.00;95.10;;;25.05;nan;98764.09;5032428;28;20627;-66
2022/09/28 07:25:57;;;;;;;1.97;1.47;;;22.40;94.80;;;25.94;nan;98768.00;5029163;28;20671;-66
2022/09/28 07:28:24;;;;;;;1.50;1.40;;;23.00;93.00;;;26.83;nan;98771.63;5032785;28;20673;-68
2022/09/28 07:30:51;;;;;;;1.20;1.10;;;23.60;91.80;;;27.52;nan;98780.25;5025403;28;20640;-66
2022/09/28 07:33:18;;;;;;;3.40;1.80;;;24.20;90.30;;;28.11;nan;98782.50;5027911;28;20632;-67
2022/09/28 07:35:54;;;;;;;1.10;1.10;;;24.90;87.30;;;28.77;nan;98781.38;5026399;28;20659;-64
2022/09/28 07:38:22;;;;;;;1.73;1.30;;;25.50;84.10;;;29.24;nan;98782.88;5023908;28;20639;-69
2022/09/28 07:43:34;;;;;;;1.50;1.30;;;26.40;78.10;;;29.79;nan;98785.28;5023317;28;20633;-70
2022/09/28 07:46:01;;;;;;;2.87;1.40;;;26.70;74.30;;;30.49;nan;98797.38;5013297;28;20711;-68
2022/09/28 07:48:36;;;;;;;2.40;1.20;;;27.00;73.70;;;31.09;nan;98798.69;5027382;28;20670;-69
2022/09/28 07:51:04;;;;;;;2.53;1.60;;;27.70;72.20;;;31.28;nan;98794.13;5012735;28;20617;-70
2022/09/28 07:53:31;;;;;;;2.60;1.80;;;28.10;68.70;;;29.96;nan;98801.84;5012471;28;20616;-67
2022/09/28 07:56:02;;;;;;;5.37;1.30;;;27.90;67.20;;;29.58;nan;98800.69;5013633;28;20665;-67
2022/09/28 07:58:31;;;;;;;2.90;1.60;;;27.60;67.00;;;30.10;nan;98800.09;5031942;28;20633;-67
2022/09/28 08:01:03;;;;;;;7.83;1.30;;;27.70;66.20;;;30.84;nan;98810.47;5031962;28;20627;-67
2022/09/28 08:03:30;;;;;;;1.30;1.20;;;27.90;64.10;;;31.27;nan;98814.06;5028980;28;20644;-67
2022/09/28 08:05:59;;;;;;;3.33;1.37;;;28.20;63.60;;;32.02;nan;98825.78;5014713;28;20710;-67
2022/09/28 08:08:28;;;;;;;1.20;1.17;;;28.70;63.20;;;32.65;nan;98829.59;5031259;28;20657;-67
2022/09/28 08:10:57;;;;;;;2.67;1.10;;;29.10;62.40;;;32.82;nan;98827.13;5015946;28;21193;-69
2022/09/28 08:13:24;;;;;;;1.37;1.27;;;29.20;59.80;;;33.37;nan;98824.47;5029623;28;21200;-68
2022/09/28 08:15:53;;;;;;;3.20;1.20;;;29.80;59.10;;;34.35;nan;98823.63;5011498;28;20688;-71
2022/09/28 08:18:22;;;;;;;1.57;1.23;;;30.30;57.70;;;34.82;nan;98828.38;5010210;28;20610;-68
2022/09/28 08:23:37;;;;;;;1.37;1.10;;;31.00;55.50;;;34.47;nan;98840.13;4997443;28;20621;-69
2022/09/28 08:26:04;;;;;;;1.10;1.10;;;30.90;54.10;;;31.92;nan;98842.84;5012813;28;20633;-69
2022/09/28 08:28:33;;;;;;;1.30;1.20;;;29.60;54.70;;;30.24;nan;98836.03;5004202;28;20664;-69
2022/09/28 08:31:00;;;;;;;1.40;1.10;;;28.30;55.90;;;28.15;nan;98834.53;5012608;28;20993;-69
2022/09/28 08:33:28;;;;;;;2.00;1.30;;;26.90;57.70;;;27.39;nan;98831.63;5009504;28;20614;-68
2022/09/28 08:36:00;;;;;;;1.23;1.23;;;25.90;60.20;;;30.26;nan;98839.22;5026404;28;20655;-69
2022/09/28 08:38:29;;;;;;;1.20;1.10;;;26.50;60.40;;;33.59;nan;98843.50;5031970;28;20627;-68
2022/09/28 08:41:35;;;;;;;1.30;1.20;;;28.20;57.80;;;32.42;nan;98846.72;5012351;28;21262;-69
2022/09/28 08:44:22;;;;;;;1.63;1.30;;;28.40;56.80;;;34.02;nan;98847.44;5004381;28;20663;-69
2022/09/28 08:47:00;;;;;;;1.10;1.10;;;29.10;56.10;;;36.69;nan;98855.38;5027028;28;20633;-69
2022/09/28 08:49:40;;;;;;;1.43;1.17;;;30.50;53.90;;;38.25;nan;98852.31;5024399;28;20635;-70
2022/09/28 08:52:29;;;;;;;2.30;1.17;;;31.90;51.90;;;39.80;nan;98861.09;4994797;28;20629;-71
2022/09/28 08:55:06;;;;;;;1.33;1.23;;;33.20;49.60;;;40.89;nan;98866.91;5012069;28;20652;-70
2022/09/28 08:57:43;;;;;;;1.80;1.00;;;34.10;48.20;;;42.05;nan;98860.69;5010883;28;20609;-68
2022/09/28 09:00:31;;;;;;;1.00;0.90;;;35.10;46.80;;;37.78;nan;98852.47;5011603;28;20635;-69
2022/09/28 09:03:03;;;;;;;0.87;0.87;;;33.80;47.00;;;38.42;nan;98852.16;5009992;28;20647;-69
2022/09/28 09:06:28;;;;;;;3.07;1.10;;;33.40;46.90;;;36.51;nan;98849.16;5027982;28;20668;-70
2022/09/28 09:09:24;;;;;;;2.20;1.23;;;32.70;46.60;;;38.52;nan;98851.75;5028780;28;20661;-69
2022/09/28 09:12:48;;;;;;;2.53;1.00;;;32.90;46.10;;;34.94;nan;98838.66;5014029;28;20642;-69
2022/09/28 09:15:27;;;;;;;1.43;1.33;;;32.10;46.10;;;30.88;nan;98835.00;5018793;22;20689;-65
2022/09/28 09:18:15;;;;;;;0.80;0.80;;;29.30;49.30;;;29.25;nan;98835.50;4993126;28;20629;-67
2022/09/28 09:20:55;;;;;;;1.13;1.03;;;27.80;51.00;;;27.53;nan;98842.66;5010620;28;20664;-65
2022/09/28 09:23:46;;;;;;;0.80;0.80;;;26.20;53.80;;;25.89;nan;98845.47;4992938;28;20634;-65
2022/09/28 09:26:42;;;;;;;0.87;0.87;;;25.10;55.00;;;26.90;nan;98844.47;4993407;28;20646;-65
2022/09/28 09:29:15;;;;;;;0.90;0.80;;;24.20;56.80;;;29.67;nan;98849.28;4996823;28;20690;-65
2022/09/28 09:32:13;;;;;;;2.10;1.10;;;25.50;55.30;;;27.33;nan;98848.72;5008470;28;20634;-66
2022/09/28 09:35:00;;;;;;;2.37;0.90;;;25.10;54.10;;;24.59;nan;98850.66;5004372;28;20675;-62
2022/09/28 09:37:48;;;;;;;0.70;0.70;;;23.70;56.40;;;22.75;nan;98844.88;4998023;28;20652;-66
2022/09/28 09:40:35;;;;;;;0.70;0.70;;;22.30;58.80;;;24.23;nan;98843.13;5010005;28;20621;-64
2022/09/28 09:43:25;;;;;;;1.13;0.90;;;21.80;60.30;;;29.81;nan;98850.31;5008178;28;20650;-61
2022/09/28 09:46:28;;;;;;;0.90;0.90;;;24.10;56.90;;;35.23;nan;98870.66;4998368;28;21017;-64
2022/09/28 09:49:06;;;;;;;1.33;0.90;;;27.80;52.10;;;38.05;nan;98868.31;5009968;28;20660;-65
2022/09/28 09:51:47;;;;;;;1.90;0.80;;;30.70;49.60;;;38.71;nan;98865.66;5011129;28;20610;-65
2022/09/28 09:54:21;;;;;;;0.70;0.70;;;32.50;47.20;;;35.56;nan;98863.78;4998448;28;21269;-65
2022/09/28 09:57:09;;;;;;;1.53;0.80;;;31.60;46.60;;;35.24;nan;98864.94;4989018;28;20626;-64
2022/09/28 09:59:40;;;;;;;0.80;0.80;;;31.30;46.60;;;33.67;nan;98861.69;4990371;28;20664;-65
2022/09/28 10:02:21;;;;;;;0.70;0.70;;;30.70;46.90;;;34.26;nan;98863.38;4991347;28;20640;-63
2022/09/28 10:04:53;;;;;;;1.17;1.00;;;30.30;47.70;;;33.31;nan;98861.59;5010025;28;20666;-65
2022/09/28 10:07:51;;;;;;;2.50;1.13;;;29.90;47.90;;;34.55;nan;98861.06;5009206;28;21237;-65
2022/09/28 10:10:34;;;;;;;3.03;1.30;;;30.00;48.20;;;37.24;nan;98872.47;4978175;28;20632;-65
2022/09/28 10:13:02;;;;;;;1.13;1.03;;;31.00;47.50;;;38.02;nan;98871.69;5008791;28;20630;-63
2022/09/28 10:15:31;;;;;;;1.33;1.00;;;31.90;46.40;;;37.90;nan;98865.41;5006970;28;20664;-64
2022/09/28 10:18:05;;;;;;;0.97;0.97;;;32.30;45.40;;;39.15;nan;98873.03;4996254;28;20683;-64
2022/09/28 10:20:37;;;;;;;1.20;1.10;;;32.90;45.20;;;40.54;nan;98868.72;4990024;28;20626;-65
2022/09/28 10:23:10;;;;;;;0.90;0.90;;;33.50;44.60;;;39.70;nan;98869.72;4992225;28;20637;-65
2022/09/28 10:25:37;;;;;;;1.20;0.97;;;33.30;44.00;;;39.59;nan;98859.63;5011491;28;20638;-66
2022/09/28 10:28:05;;;;;;;1.97;0.77;;;33.40;44.20;;;37.77;nan;98869.13;5010711;28;20666;-63
2022/09/28 10:30:42;;;;;;;1.40;1.30;;;32.70;44.30;;;36.18;nan;98858.94;4987335;28;20625;-64
2022/09/28 10:33:31;;;;;;;2.47;1.10;;;31.60;45.40;;;34.45;nan;98855.88;5012408;28;20618;-65
2022/09/28 10:36:05;;;;;;;6.13;0.90;;;30.40;46.60;;;31.45;nan;98852.97;5012712;28;20691;-66
2022/09/28 10:38:33;;;;;;;0.90;0.90;;;28.90;46.90;;;29.15;nan;98853.25;5014714;28;20626;-66
2022/09/28 10:41:09;;;;;;;0.90;0.90;;;27.40;48.90;;;27.28;nan;98861.28;5014830;28;20622;-64
2022/09/28 10:44:07;;;;;;;3.90;0.90;;;26.00;50.00;;;25.57;nan;98857.91;4997706;28;20704;-63
2022/09/28 10:46:37;;;;;;;1.67;0.70;;;24.60;51.10;;;24.51;nan;98852.91;4998936;28;21255;-65
2022/09/28 10:49:16;;;;;;;0.83;0.83;;;23.70;52.90;;;23.17;nan;98860.72;4996277;28;21306;-63
2022/09/28 10:51:48;;;;;;;0.90;0.90;;;22.80;54.40;;;21.93;nan;98860.88;4997116;28;20630;-67
2022/09/28 10:54:22;;;;;;;3.90;3.27;;;21.80;56.70;;;21.44;nan;98860.06;5013471;28;20618;-64
2022/09/28 10:56:49;;;;;;;4.83;4.00;;;21.10;57.70;;;;;;4996346;28;20626;-62
2022/09/28 10:59:28;;;;;;;13.60;8.20;;;20.60;58.70;;;;;;5013582;28;20676;-64
2022/09/28 11:02:13;;;;;;;1.03;0.93;;;20.20;60.20;;;;;;5013883;28;20618;-63
2022/09/28 11:04:42;;;;;;;3.23;0.90;;;19.70;61.30;;;;;;5014408;28;20645;-63
2022/09/28 11:07:22;;;;;;;1.80;1.00;;;19.40;62.30;;;;;;5014222;28;20622;-64
2022/09/28 11:09:51;;;;;;;0.90;0.90;;;19.10;63.70;;;;;;5014243;28;21160;-64
2022/09/28 11:12:22;;;;;;;1.10;1.00;;;18.80;64.60;;;;;;5014061;28;20626;-65
2022/09/28 11:14:56;;;;;;;0.80;0.70;;;18.60;65.50;;;;;;5025480;28;20657;-64
2022/09/28 11:17:37;;;;;;;0.77;0.77;;;18.50;65.30;;;;;;5015568;28;20610;-65